createdAt,value
2019-02-19T00:01:44.682Z,7.13
2019-02-19T00:06:48.874Z,7.60
2019-02-19T00:11:54.457Z,8.77
2019-02-19T00:16:58.652Z,7.37
2019-02-19T00:22:04.026Z,6.43
2019-02-19T00:27:08.182Z,6.80
2019-02-19T00:32:13.788Z,8.23
2019-02-19T00:37:17.973Z,7.73
2019-02-19T00:42:23.521Z,6.20
2019-02-19T00:47:27.713Z,9.97
2019-02-19T00:52:32.957Z,7.83
2019-02-19T00:57:37.169Z,8.27
2019-02-19T01:02:41.429Z,5.80
2019-02-19T01:07:46.598Z,7.73
2019-02-19T01:12:52.354Z,8.47
2019-02-19T01:17:56.532Z,7.87
2019-02-19T01:23:02.142Z,9.70
2019-02-19T01:28:06.335Z,7.50
2019-02-19T01:33:11.843Z,8.60
2019-02-19T01:38:16.011Z,7.13
2019-02-19T01:43:21.225Z,7.43
2019-02-19T01:48:25.406Z,5.93
2019-02-19T01:53:32.363Z,8.00
2019-02-19T01:58:36.568Z,6.33
2019-02-19T02:03:42.259Z,7.77
2019-02-19T02:08:46.442Z,6.80
2019-02-19T02:13:52.270Z,8.23
2019-02-19T02:18:56.473Z,6.23
2019-02-19T02:24:02.058Z,6.20
2019-02-19T02:29:06.259Z,7.57
2019-02-19T02:34:11.673Z,7.53
2019-02-19T02:39:15.864Z,7.30
2019-02-19T02:44:21.659Z,7.63
2019-02-19T02:49:25.819Z,8.10
2019-02-19T02:54:30.670Z,7.87
2019-02-19T02:59:35.836Z,8.57
2019-02-19T03:04:41.260Z,7.47
2019-02-19T03:09:45.705Z,6.70
2019-02-19T03:14:51.501Z,5.17
2019-02-19T03:19:56.731Z,7.63
2019-02-19T03:25:02.166Z,8.63
2019-02-19T03:30:07.277Z,7.87
2019-02-19T03:35:13.240Z,8.20
2019-02-19T03:40:17.641Z,9.07
2019-02-19T03:45:23.037Z,6.97
2019-02-19T03:50:27.215Z,6.87
2019-02-19T03:55:32.730Z,5.30
2019-02-19T04:00:36.930Z,8.83
2019-02-19T04:05:42.042Z,9.43
2019-02-19T04:10:46.236Z,6.60
2019-02-19T04:15:51.325Z,6.30
2019-02-19T04:20:55.497Z,6.33
2019-02-19T04:25:59.766Z,6.47
2019-02-19T04:31:03.984Z,7.97
2019-02-19T04:36:08.220Z,6.67
2019-02-19T04:41:12.430Z,7.47
2019-02-19T04:46:17.139Z,7.80
2019-02-19T04:51:21.317Z,8.27
2019-02-19T04:56:26.890Z,5.50
2019-02-19T05:01:31.078Z,6.87
2019-02-19T05:06:36.507Z,7.40
2019-02-19T05:11:40.813Z,6.53
2019-02-19T05:16:49.102Z,6.97
2019-02-19T05:21:53.286Z,6.03
2019-02-19T05:26:58.781Z,6.97
2019-02-19T05:32:02.968Z,8.53
2019-02-19T05:37:08.651Z,7.77
2019-02-19T05:42:12.883Z,7.43
2019-02-19T05:47:18.591Z,6.93
2019-02-19T05:52:22.800Z,8.00
2019-02-19T05:57:28.881Z,11.10
2019-02-19T06:02:33.068Z,8.43
2019-02-19T06:07:38.772Z,6.20
2019-02-19T06:12:42.966Z,12.67
2019-02-19T06:17:47.223Z,6.37
2019-02-19T06:28:07.223Z,7.37
2019-02-19T06:33:11.446Z,6.90
2019-02-19T06:38:17.241Z,6.80
2019-02-19T06:43:21.451Z,8.27
2019-02-19T06:48:27.261Z,8.77
2019-02-19T06:53:31.467Z,9.97
2019-02-19T06:58:37.278Z,8.27
2019-02-19T07:04:06.531Z,12.60
2019-02-19T07:09:14.711Z,12.43
2019-02-19T07:14:18.914Z,7.37
2019-02-19T07:19:24.434Z,8.80
2019-02-19T07:24:28.627Z,9.50
2019-02-19T07:29:33.793Z,7.87
2019-02-19T07:34:37.985Z,9.53
2019-02-19T07:39:42.924Z,11.67
2019-02-19T07:44:47.118Z,13.13
2019-02-19T07:49:53.036Z,11.00
2019-02-19T07:54:57.225Z,15.10
2019-02-19T08:00:02.866Z,14.13
2019-02-19T08:05:07.225Z,15.03
2019-02-19T08:10:12.433Z,13.33
2019-02-19T08:15:16.633Z,15.93
2019-02-19T08:20:21.491Z,11.20
2019-02-19T08:25:25.747Z,18.07
2019-02-19T08:30:30.594Z,20.90
2019-02-19T08:35:35.076Z,16.00
2019-02-19T08:40:39.408Z,15.43
2019-02-19T08:45:43.593Z,15.25
2019-02-19T08:50:48.735Z,15.03
2019-02-19T08:55:53.254Z,15.13
2019-02-19T09:00:58.447Z,14.03
2019-02-19T09:06:02.718Z,15.63
2019-02-19T09:11:08.035Z,14.93
2019-02-19T09:16:12.235Z,14.75
2019-02-19T09:21:17.131Z,13.32
2019-02-19T09:26:21.578Z,16.40
2019-02-19T09:31:25.962Z,17.40
2019-02-19T09:36:30.426Z,17.27
2019-02-19T09:41:34.654Z,17.15
2019-02-19T09:46:38.920Z,17.93
2019-02-19T09:51:43.422Z,18.93
2019-02-19T09:56:47.591Z,15.40
2019-02-19T10:01:53.020Z,14.03
2019-02-19T10:06:57.524Z,25.20
2019-02-19T10:12:01.841Z,16.17
2019-02-19T10:17:06.386Z,17.67
2019-02-19T10:22:11.990Z,18.17
2019-02-19T10:27:16.437Z,19.37
2019-02-19T10:32:22.067Z,16.07
2019-02-19T10:37:26.535Z,16.17
2019-02-19T10:42:31.093Z,14.47
2019-02-19T10:47:35.952Z,15.38
2019-02-19T10:52:41.891Z,14.47
2019-02-19T10:57:47.157Z,13.62
2019-02-19T11:02:53.853Z,12.33
2019-02-19T11:07:58.327Z,14.53
2019-02-19T11:13:03.051Z,12.63
2019-02-19T11:18:07.524Z,17.57
2019-02-19T11:23:13.235Z,11.10
2019-02-19T11:28:17.887Z,9.63
2019-02-19T11:33:23.586Z,10.93
2019-02-19T11:38:28.044Z,11.90
2019-02-19T11:43:33.541Z,8.88
2019-02-19T11:48:38.009Z,7.50
2019-02-19T11:53:42.954Z,6.70
2019-02-19T11:58:47.406Z,9.10
2019-02-19T12:03:52.234Z,10.37
2019-02-19T12:08:56.776Z,11.40
2019-02-19T12:14:02.165Z,5.57
2019-02-19T12:19:06.343Z,8.60
2019-02-19T12:24:11.762Z,8.83
2019-02-19T12:29:17.506Z,7.42
2019-02-19T12:34:24.308Z,6.97
2019-02-19T12:39:30.711Z,9.90
2019-02-19T12:44:36.226Z,8.07
2019-02-19T12:49:41.678Z,5.08
2019-02-19T12:54:46.859Z,14.93
2019-02-19T12:59:56.662Z,9.18
2019-02-19T13:04:57.809Z,10.47
2019-02-19T13:10:02.262Z,9.93
2019-02-19T13:15:08.531Z,8.63
2019-02-19T13:20:13.041Z,8.57
2019-02-19T13:25:18.613Z,11.73
2019-02-19T13:30:23.080Z,9.03
2019-02-19T13:35:27.801Z,7.95
2019-02-19T13:40:32.262Z,10.63
2019-02-19T13:45:36.526Z,10.70
2019-02-19T13:50:40.982Z,11.83
2019-02-19T13:55:48.843Z,10.27
2019-02-19T14:00:53.354Z,13.27
2019-02-19T14:05:57.572Z,10.25
2019-02-19T14:11:02.223Z,8.87
2019-02-19T14:16:14.124Z,9.58
2019-02-19T14:21:29.499Z,11.00
2019-02-19T14:26:45.102Z,9.80
2019-02-19T14:32:03.269Z,11.20
2019-02-19T14:37:29.327Z,7.33
2019-02-19T14:42:44.420Z,10.15
2019-02-19T14:48:06.855Z,13.80
2019-02-19T14:53:32.721Z,9.60
2019-02-19T14:59:03.254Z,12.83
2019-02-19T15:04:21.134Z,9.55
2019-02-19T15:09:53.569Z,7.73
2019-02-19T15:15:17.647Z,9.93
2019-02-19T15:20:39.965Z,8.30
2019-02-19T15:26:17.298Z,8.07
2019-02-19T15:31:55.668Z,9.10
2019-02-19T15:37:22.290Z,13.43
2019-02-19T15:42:44.662Z,9.27
2019-02-19T15:48:06.876Z,7.97
2019-02-19T15:53:31.130Z,7.27
2019-02-19T15:58:54.526Z,9.43
2019-02-19T16:04:07.791Z,6.77
2019-02-19T16:09:27.790Z,10.07
2019-02-19T16:14:46.287Z,8.27
2019-02-19T16:19:58.434Z,5.33
2019-02-19T16:25:28.264Z,6.33
2019-02-19T16:30:54.857Z,4.15
2019-02-19T16:36:07.833Z,8.30
2019-02-19T16:41:43.026Z,5.67
2019-02-19T16:47:06.595Z,5.90
2019-02-19T16:52:20.928Z,6.53
2019-02-19T16:57:43.249Z,4.20
2019-02-19T17:03:02.034Z,4.60
2019-02-19T17:08:24.678Z,9.60
2019-02-19T17:13:48.119Z,8.48
2019-02-19T17:19:10.463Z,10.45
2019-02-19T17:24:40.919Z,4.47
2019-02-19T17:29:54.581Z,7.37
2019-02-19T17:35:16.775Z,6.33
2019-02-19T17:40:28.661Z,4.03
2019-02-19T17:46:07.419Z,5.12
2019-02-19T17:51:37.066Z,4.40
2019-02-19T17:57:03.918Z,5.57
2019-02-19T18:02:12.614Z,3.00
2019-02-19T18:07:35.847Z,2.87
2019-02-19T18:13:02.375Z,3.77
2019-02-19T18:18:25.743Z,2.30
2019-02-19T18:23:29.933Z,2.58
2019-02-19T18:28:35.590Z,4.10
2019-02-19T18:33:39.771Z,3.50
2019-02-19T18:38:45.092Z,2.90
2019-02-19T18:43:49.357Z,2.97
2019-02-19T18:48:54.616Z,2.37
2019-02-19T18:53:59.155Z,4.30
2019-02-19T18:59:03.679Z,4.53
2019-02-19T19:04:07.861Z,3.77
2019-02-19T19:09:12.752Z,5.83
2019-02-19T19:14:17.085Z,4.03
2019-02-19T19:19:22.207Z,3.03
2019-02-19T19:24:26.996Z,5.33
2019-02-19T19:29:32.882Z,4.17
2019-02-19T19:34:37.146Z,2.90
2019-02-19T19:39:42.088Z,3.10
2019-02-19T19:44:46.270Z,4.20
2019-02-19T19:49:50.467Z,2.37
2019-02-19T19:54:54.655Z,4.57
2019-02-19T19:59:59.402Z,8.27
2019-02-19T20:05:05.282Z,4.47
2019-02-19T20:10:11.250Z,3.20
2019-02-19T20:15:16.156Z,4.97
2019-02-19T20:20:20.607Z,3.87
2019-02-19T20:25:24.793Z,6.00
2019-02-19T20:30:31.524Z,4.80
2019-02-19T20:35:36.058Z,3.93
2019-02-19T20:40:40.572Z,6.60
2019-02-19T20:45:45.070Z,2.63
2019-02-19T20:50:49.444Z,4.00
2019-02-19T20:55:53.604Z,3.33
2019-02-19T21:00:57.913Z,4.33
2019-02-19T21:06:02.776Z,7.50
2019-02-19T21:11:08.070Z,3.30
2019-02-19T21:16:12.518Z,3.40
2019-02-19T21:21:16.703Z,3.87
2019-02-19T21:26:22.017Z,5.00
2019-02-19T21:31:26.223Z,4.87
2019-02-19T21:36:31.866Z,4.10
2019-02-19T21:41:36.040Z,5.53
2019-02-19T21:46:41.278Z,6.20
2019-02-19T21:51:53.712Z,5.30
2019-02-19T21:56:51.610Z,5.63
2019-02-19T22:01:57.021Z,3.50
2019-02-19T22:07:01.185Z,5.10
2019-02-19T22:12:06.426Z,5.07
2019-02-19T22:17:10.617Z,4.97
2019-02-19T22:22:21.205Z,5.43
2019-02-19T22:27:25.382Z,5.23
2019-02-19T22:32:29.549Z,5.03
2019-02-19T22:37:33.697Z,3.87
2019-02-19T22:42:37.983Z,6.37
2019-02-19T22:47:42.147Z,3.63
2019-02-19T22:52:47.858Z,5.43
2019-02-19T22:57:52.185Z,4.30
2019-02-19T23:02:57.735Z,6.53
2019-02-19T23:08:01.911Z,5.07
2019-02-19T23:13:07.511Z,6.20
2019-02-19T23:18:11.657Z,5.30
2019-02-19T23:23:17.060Z,4.33
2019-02-19T23:28:21.239Z,7.93
2019-02-19T23:33:25.415Z,7.50
2019-02-19T23:38:29.652Z,4.60
2019-02-19T23:43:35.249Z,5.63
2019-02-19T23:48:40.469Z,5.53
2019-02-19T23:53:46.037Z,6.30
2019-02-19T23:58:50.218Z,5.90
